createdAt,value
2022-12-22T00:00:35.292Z,20.88
2022-12-22T00:03:20.767Z,20.86
2022-12-22T00:06:06.138Z,20.86
2022-12-22T00:08:51.449Z,20.86
2022-12-22T00:11:37.490Z,20.86
2022-12-22T00:14:22.940Z,20.83
2022-12-22T00:17:10.174Z,20.83
2022-12-22T00:19:55.352Z,20.84
2022-12-22T00:22:42.884Z,20.83
2022-12-22T00:25:31.725Z,20.82
2022-12-22T00:28:17.400Z,20.83
2022-12-22T00:31:03.792Z,20.83
2022-12-22T00:33:51.062Z,20.80
2022-12-22T00:36:39.356Z,20.82
2022-12-22T00:39:30.602Z,20.82
2022-12-22T00:42:16.473Z,20.80
2022-12-22T00:45:01.747Z,20.80
2022-12-22T00:47:48.895Z,20.79
2022-12-22T00:50:36.186Z,20.80
2022-12-22T00:53:23.082Z,20.79
2022-12-22T00:56:08.883Z,20.79
2022-12-22T00:58:55.142Z,20.76
2022-12-22T01:01:41.687Z,20.77
2022-12-22T01:04:28.426Z,20.76
2022-12-22T01:07:15.576Z,20.75
2022-12-22T01:10:07.453Z,20.75
2022-12-22T01:12:55.935Z,20.75
2022-12-22T01:15:41.633Z,20.75
2022-12-22T01:18:27.374Z,20.72
2022-12-22T01:21:13.171Z,20.71
2022-12-22T01:24:00.879Z,20.71
2022-12-22T01:26:46.261Z,20.70
2022-12-22T01:29:31.636Z,20.69
2022-12-22T01:32:17.237Z,20.69
2022-12-22T01:35:03.173Z,20.68
2022-12-22T01:37:48.588Z,20.68
2022-12-22T01:40:38.177Z,20.67
2022-12-22T01:43:37.932Z,20.68
2022-12-22T01:46:41.252Z,20.67
2022-12-22T01:49:29.529Z,20.67
2022-12-22T01:52:15.864Z,20.67
2022-12-22T01:55:02.194Z,20.67
2022-12-22T01:57:50.138Z,20.66
2022-12-22T02:00:35.845Z,20.65
2022-12-22T02:03:21.630Z,20.65
2022-12-22T02:06:23.970Z,20.65
2022-12-22T02:09:20.415Z,20.64
2022-12-22T02:12:15.740Z,20.64
2022-12-22T02:15:08.663Z,20.62
2022-12-22T02:18:02.573Z,20.63
2022-12-22T02:20:59.016Z,20.63
2022-12-22T02:24:09.506Z,20.62
2022-12-22T02:27:00.782Z,20.61
2022-12-22T02:29:49.421Z,20.61
2022-12-22T02:32:35.210Z,20.60
2022-12-22T02:35:20.512Z,20.61
2022-12-22T02:38:17.297Z,20.60
2022-12-22T02:41:14.256Z,20.58
2022-12-22T02:44:15.507Z,20.58
2022-12-22T02:47:08.254Z,20.59
2022-12-22T02:50:00.264Z,20.59
2022-12-22T02:52:52.037Z,20.59
2022-12-22T02:55:39.392Z,20.59
2022-12-22T02:58:25.481Z,20.58
2022-12-22T03:01:12.752Z,20.57
2022-12-22T03:03:58.125Z,20.57
2022-12-22T03:06:43.719Z,20.57
2022-12-22T03:09:29.064Z,20.57
2022-12-22T03:12:14.361Z,20.56
2022-12-22T03:14:59.740Z,20.54
2022-12-22T03:17:46.872Z,20.55
2022-12-22T03:20:32.568Z,20.55
2022-12-22T03:23:22.548Z,20.56
2022-12-22T03:25:54.125Z,20.54
2022-12-22T03:28:23.637Z,20.55
2022-12-22T03:30:56.275Z,20.55
2022-12-22T03:33:26.303Z,20.53
2022-12-22T03:35:54.346Z,20.53
2022-12-22T03:38:22.495Z,20.53
2022-12-22T03:40:50.468Z,20.53
2022-12-22T03:43:39.053Z,20.53
2022-12-22T03:46:23.830Z,20.52
2022-12-22T03:49:11.731Z,20.53
2022-12-22T03:51:44.661Z,20.52
2022-12-22T03:54:15.145Z,20.51
2022-12-22T03:56:43.576Z,20.50
2022-12-22T03:59:12.281Z,20.50
2022-12-22T04:01:42.208Z,20.51
2022-12-22T04:04:12.703Z,20.51
2022-12-22T04:06:41.983Z,20.50
2022-12-22T04:09:10.683Z,20.50
2022-12-22T04:11:56.355Z,20.51
2022-12-22T04:14:33.989Z,20.50
2022-12-22T04:17:02.970Z,20.50
2022-12-22T04:19:32.571Z,20.49
2022-12-22T04:22:00.850Z,20.49
2022-12-22T04:24:32.095Z,20.49
2022-12-22T04:27:00.125Z,20.49
2022-12-22T04:29:28.126Z,20.48
2022-12-22T04:31:56.202Z,20.48
2022-12-22T04:34:24.216Z,20.48
2022-12-22T04:36:53.674Z,20.47
2022-12-22T04:39:21.740Z,20.48
2022-12-22T04:41:49.988Z,20.48
2022-12-22T04:44:17.996Z,20.46
2022-12-22T04:46:46.853Z,20.47
2022-12-22T04:49:14.871Z,20.46
2022-12-22T04:51:42.856Z,20.46
2022-12-22T04:54:14.789Z,20.46
2022-12-22T04:56:45.616Z,20.45
2022-12-22T04:59:13.847Z,20.45
2022-12-22T05:01:41.967Z,20.45
2022-12-22T05:04:09.978Z,20.46
2022-12-22T05:06:38.035Z,20.45
2022-12-22T05:09:06.308Z,20.44
2022-12-22T05:11:35.630Z,20.42
2022-12-22T05:14:07.213Z,20.43
2022-12-22T05:16:35.778Z,20.44
2022-12-22T05:19:03.887Z,20.43
2022-12-22T05:21:31.927Z,20.43
2022-12-22T05:23:59.997Z,20.43
2022-12-22T05:26:30.483Z,20.43
2022-12-22T05:28:59.921Z,20.41
2022-12-22T05:31:29.036Z,20.42
2022-12-22T05:33:57.058Z,20.42
2022-12-22T05:36:25.128Z,20.41
2022-12-22T05:38:55.291Z,20.41
2022-12-22T05:41:23.409Z,20.41
2022-12-22T05:43:51.401Z,20.41
2022-12-22T05:46:20.777Z,20.41
2022-12-22T05:48:48.854Z,20.41
2022-12-22T05:51:16.828Z,20.41
2022-12-22T05:53:44.876Z,20.41
2022-12-22T05:56:15.353Z,20.39
2022-12-22T05:58:43.542Z,20.42
2022-12-22T06:01:11.545Z,20.42
2022-12-22T06:03:41.021Z,20.44
2022-12-22T06:06:09.235Z,20.45
2022-12-22T06:08:37.328Z,20.02
2022-12-22T06:11:05.459Z,20.11
2022-12-22T06:13:33.422Z,20.14
2022-12-22T06:16:01.539Z,20.18
2022-12-22T06:18:29.532Z,20.24
2022-12-22T06:20:58.944Z,20.28
2022-12-22T06:23:26.962Z,20.31
2022-12-22T06:25:56.828Z,20.33
2022-12-22T06:28:25.410Z,20.36
2022-12-22T06:30:53.920Z,20.35
2022-12-22T06:33:22.088Z,20.36
2022-12-22T06:35:57.636Z,20.37
2022-12-22T06:38:29.394Z,20.37
2022-12-22T06:40:57.591Z,20.39
2022-12-22T06:43:24.766Z,20.40
2022-12-22T06:45:52.962Z,20.40
2022-12-22T06:48:21.205Z,20.40
2022-12-22T06:50:49.365Z,20.41
2022-12-22T06:53:18.074Z,20.43
2022-12-22T06:55:47.414Z,20.41
2022-12-22T06:58:15.471Z,20.43
2022-12-22T07:00:45.461Z,20.43
2022-12-22T07:03:13.705Z,20.45
2022-12-22T07:05:41.831Z,20.42
2022-12-22T07:08:09.837Z,20.44
2022-12-22T07:10:55.651Z,20.45
2022-12-22T07:13:25.491Z,20.45
2022-12-22T07:16:00.251Z,20.46
2022-12-22T07:18:30.319Z,20.47
2022-12-22T07:20:58.356Z,20.46
2022-12-22T07:23:26.406Z,20.45
2022-12-22T07:25:54.492Z,20.44
2022-12-22T07:28:22.498Z,20.43
2022-12-22T07:30:52.368Z,20.44
2022-12-22T07:33:20.744Z,20.44
2022-12-22T07:35:48.779Z,20.24
2022-12-22T07:38:16.720Z,20.26
2022-12-22T07:40:49.347Z,20.28
2022-12-22T07:43:19.822Z,20.28
2022-12-22T07:45:47.930Z,20.31
2022-12-22T07:48:34.653Z,20.33
2022-12-22T07:51:05.153Z,20.35
2022-12-22T07:53:33.991Z,20.34
2022-12-22T07:56:05.697Z,20.35
2022-12-22T07:58:33.831Z,20.34
2022-12-22T08:01:02.381Z,20.34
2022-12-22T08:03:31.855Z,20.32
2022-12-22T08:05:59.842Z,20.33
2022-12-22T08:08:27.847Z,20.33
2022-12-22T08:10:55.877Z,20.34
2022-12-22T08:13:23.843Z,20.35
2022-12-22T08:15:51.989Z,20.34
2022-12-22T08:18:19.973Z,20.35
2022-12-22T08:20:51.789Z,20.35
2022-12-22T08:23:19.793Z,20.35
2022-12-22T08:25:52.018Z,20.34
2022-12-22T08:28:19.856Z,20.34
2022-12-22T08:30:48.658Z,20.34
2022-12-22T08:33:16.704Z,20.25
2022-12-22T08:35:45.017Z,20.22
2022-12-22T08:38:15.572Z,20.20
2022-12-22T08:40:46.680Z,20.21
2022-12-22T08:43:14.992Z,20.21
2022-12-22T08:45:43.721Z,20.24
2022-12-22T08:48:12.153Z,20.25
2022-12-22T08:50:40.148Z,20.27
2022-12-22T08:53:23.775Z,20.27
2022-12-22T08:55:59.013Z,20.30
2022-12-22T08:58:27.001Z,20.30
2022-12-22T09:00:54.969Z,20.28
2022-12-22T09:03:23.172Z,19.84
2022-12-22T09:05:51.184Z,19.63
2022-12-22T09:08:19.185Z,19.63
2022-12-22T09:10:49.567Z,19.68
2022-12-22T09:13:18.962Z,19.74
2022-12-22T09:15:46.992Z,19.79
2022-12-22T09:18:15.033Z,19.83
2022-12-22T09:20:43.004Z,19.86
2022-12-22T09:23:11.301Z,19.84
2022-12-22T09:25:39.323Z,19.85
2022-12-22T09:28:08.476Z,19.88
2022-12-22T09:30:37.813Z,19.92
2022-12-22T09:33:05.823Z,19.95
2022-12-22T09:35:33.792Z,19.99
2022-12-22T09:38:01.814Z,20.02
2022-12-22T09:40:29.795Z,19.98
2022-12-22T09:42:59.209Z,20.00
2022-12-22T09:45:27.272Z,20.03
2022-12-22T09:47:56.871Z,20.06
2022-12-22T09:50:27.207Z,20.10
2022-12-22T09:52:59.031Z,20.13
2022-12-22T09:55:40.846Z,20.12
2022-12-22T09:58:25.800Z,20.13
2022-12-22T10:01:02.947Z,20.12
2022-12-22T10:03:42.158Z,20.14
2022-12-22T10:06:15.658Z,20.14
2022-12-22T10:08:44.156Z,20.16
2022-12-22T10:11:18.039Z,20.16
2022-12-22T10:13:47.208Z,20.16
2022-12-22T10:16:21.079Z,20.17
2022-12-22T10:19:07.207Z,20.16
2022-12-22T10:21:46.174Z,20.17
2022-12-22T10:24:19.937Z,20.16
2022-12-22T10:26:49.280Z,20.18
2022-12-22T10:29:18.949Z,20.17
2022-12-22T10:32:00.607Z,20.18
2022-12-22T10:34:30.518Z,20.18
2022-12-22T10:37:01.409Z,20.18
2022-12-22T10:39:33.325Z,20.18
2022-12-22T10:42:03.419Z,20.19
2022-12-22T10:44:34.694Z,20.19
2022-12-22T10:47:17.554Z,20.18
2022-12-22T10:49:49.291Z,20.18
2022-12-22T10:52:23.963Z,20.18
2022-12-22T10:55:15.900Z,20.17
2022-12-22T10:57:46.415Z,20.19
2022-12-22T11:00:26.747Z,20.19
2022-12-22T11:02:56.473Z,20.19
2022-12-22T11:05:26.196Z,20.19
2022-12-22T11:07:55.169Z,20.19
2022-12-22T11:10:32.198Z,20.18
2022-12-22T11:13:15.390Z,20.19
2022-12-22T11:15:49.823Z,20.19
2022-12-22T11:18:31.155Z,20.19
2022-12-22T11:21:08.661Z,20.18
2022-12-22T11:23:43.227Z,20.19
2022-12-22T11:26:17.523Z,20.19
2022-12-22T11:29:10.639Z,20.18
2022-12-22T11:31:54.776Z,20.18
2022-12-22T11:34:37.295Z,20.18
2022-12-22T11:37:19.552Z,20.19
2022-12-22T11:39:59.239Z,20.18
2022-12-22T11:42:36.635Z,20.18
2022-12-22T11:45:21.061Z,20.19
2022-12-22T11:47:59.191Z,20.18
2022-12-22T11:50:59.265Z,20.17
2022-12-22T11:53:52.226Z,20.17
2022-12-22T11:56:24.631Z,20.18
2022-12-22T11:59:08.911Z,20.16
2022-12-22T12:02:04.893Z,20.16
2022-12-22T12:04:56.375Z,20.15
2022-12-22T12:07:29.317Z,20.16
2022-12-22T12:10:19.065Z,20.15
2022-12-22T12:12:54.227Z,20.17
2022-12-22T12:15:32.561Z,20.15
2022-12-22T12:18:35.888Z,20.15
2022-12-22T12:21:21.378Z,20.13
2022-12-22T12:24:02.180Z,20.15
2022-12-22T12:26:34.237Z,20.15
2022-12-22T12:29:14.760Z,20.15
2022-12-22T12:31:47.952Z,20.14
2022-12-22T12:34:18.025Z,20.14
2022-12-22T12:36:52.155Z,20.13
2022-12-22T12:39:26.461Z,20.13
2022-12-22T12:42:06.625Z,20.14
2022-12-22T12:44:36.891Z,20.14
2022-12-22T12:47:32.350Z,20.14
2022-12-22T12:50:02.616Z,20.13
2022-12-22T12:53:15.595Z,20.12
2022-12-22T12:55:56.564Z,20.14
2022-12-22T12:58:54.265Z,20.13
2022-12-22T13:01:57.076Z,20.13
2022-12-22T13:05:13.647Z,20.13
2022-12-22T13:08:07.007Z,20.13
2022-12-22T13:10:37.140Z,20.12
2022-12-22T13:13:11.029Z,20.13
2022-12-22T13:15:42.789Z,20.13
2022-12-22T13:18:28.456Z,20.12
2022-12-22T13:21:18.830Z,20.13
2022-12-22T13:24:23.397Z,20.13
2022-12-22T13:26:50.275Z,20.13
2022-12-22T13:29:27.304Z,20.11
2022-12-22T13:32:01.787Z,20.12
2022-12-22T13:35:20.029Z,20.10
2022-12-22T13:37:31.201Z,20.11
2022-12-22T13:40:08.784Z,20.10
2022-12-22T13:42:41.327Z,20.10
2022-12-22T13:45:18.215Z,20.11
2022-12-22T13:47:49.933Z,20.09
2022-12-22T13:50:20.413Z,20.08
2022-12-22T13:52:49.739Z,20.09
2022-12-22T13:55:22.065Z,20.08
2022-12-22T13:57:54.756Z,20.07
2022-12-22T14:00:29.599Z,20.09
2022-12-22T14:02:59.222Z,20.07
2022-12-22T14:05:32.477Z,20.07
2022-12-22T14:08:03.005Z,20.06
2022-12-22T14:10:35.715Z,20.06
2022-12-22T14:13:13.721Z,20.05
2022-12-22T14:15:44.535Z,20.05
2022-12-22T14:18:17.725Z,20.03
2022-12-22T14:20:48.183Z,20.04
2022-12-22T14:23:22.060Z,20.04
2022-12-22T14:25:55.441Z,20.04
2022-12-22T14:28:26.841Z,20.04
2022-12-22T14:30:59.632Z,20.03
2022-12-22T14:33:31.934Z,20.03
2022-12-22T14:36:17.008Z,20.03
2022-12-22T14:38:48.333Z,20.02
2022-12-22T14:41:40.905Z,20.02
2022-12-22T14:44:13.930Z,20.02
2022-12-22T14:46:43.294Z,20.01
2022-12-22T14:49:19.212Z,20.01
2022-12-22T14:52:01.089Z,20.00
2022-12-22T14:54:29.900Z,20.00
2022-12-22T14:57:06.330Z,19.99
2022-12-22T14:59:39.618Z,19.99
2022-12-22T15:02:23.071Z,19.99
2022-12-22T15:05:11.325Z,19.99
2022-12-22T15:08:09.230Z,19.99
2022-12-22T15:10:40.999Z,19.99
2022-12-22T15:13:14.852Z,19.99
2022-12-22T15:15:45.691Z,19.98
2022-12-22T15:18:16.198Z,19.97
2022-12-22T15:20:46.056Z,19.98
2022-12-22T15:23:17.146Z,19.96
2022-12-22T15:25:45.842Z,19.98
2022-12-22T15:28:13.817Z,19.98
2022-12-22T15:30:42.294Z,19.97
2022-12-22T15:33:14.338Z,19.97
2022-12-22T15:35:43.179Z,19.95
2022-12-22T15:38:14.702Z,19.95
2022-12-22T15:40:45.079Z,19.96
2022-12-22T15:43:44.703Z,19.94
2022-12-22T15:46:03.350Z,19.94
2022-12-22T15:48:34.054Z,19.93
2022-12-22T15:51:04.390Z,19.93
2022-12-22T15:53:34.954Z,19.93
2022-12-22T15:56:03.179Z,19.91
2022-12-22T15:58:34.215Z,19.93
2022-12-22T16:01:05.313Z,19.91
2022-12-22T16:03:33.431Z,19.91
2022-12-22T16:06:01.799Z,19.91
2022-12-22T16:08:38.013Z,19.91
2022-12-22T16:11:07.936Z,19.90
2022-12-22T16:13:38.064Z,19.91
2022-12-22T16:16:08.553Z,19.90
2022-12-22T16:18:36.721Z,19.90
2022-12-22T16:21:08.283Z,19.89
2022-12-22T16:23:37.928Z,19.89
2022-12-22T16:26:06.553Z,19.88
2022-12-22T16:28:35.020Z,19.88
2022-12-22T16:31:03.049Z,19.88
2022-12-22T16:33:31.124Z,19.87
2022-12-22T16:35:59.036Z,19.88
2022-12-22T16:38:27.049Z,19.87
2022-12-22T16:40:56.358Z,19.87
2022-12-22T16:46:17.973Z,19.86
2022-12-22T16:48:48.822Z,19.86
2022-12-22T16:51:20.470Z,19.85
2022-12-22T16:53:48.506Z,19.84
2022-12-22T16:56:20.595Z,19.85
2022-12-22T16:58:49.292Z,19.84
2022-12-22T17:01:35.956Z,19.84
2022-12-22T17:04:07.360Z,19.85
2022-12-22T17:06:36.143Z,19.83
2022-12-22T17:09:05.715Z,19.83
2022-12-22T17:11:37.344Z,19.84
2022-12-22T17:14:08.697Z,19.83
2022-12-22T17:16:36.789Z,19.82
2022-12-22T17:19:04.938Z,19.82
2022-12-22T17:21:34.309Z,19.82
2022-12-22T17:24:04.173Z,19.81
2022-12-22T17:26:35.586Z,19.82
2022-12-22T17:29:03.645Z,19.81
2022-12-22T17:31:31.666Z,19.81
2022-12-22T17:33:59.782Z,19.80
2022-12-22T17:36:34.463Z,19.81
2022-12-22T17:39:03.185Z,19.79
2022-12-22T17:41:31.478Z,19.80
2022-12-22T17:44:01.126Z,19.79
2022-12-22T17:46:29.426Z,19.78
2022-12-22T17:48:57.459Z,19.78
2022-12-22T17:51:28.759Z,19.77
2022-12-22T17:53:59.402Z,19.78
2022-12-22T17:56:28.797Z,19.78
2022-12-22T17:58:57.049Z,19.78
2022-12-22T18:01:28.648Z,19.79
2022-12-22T18:03:57.766Z,19.78
2022-12-22T18:06:31.373Z,19.78
2022-12-22T18:08:59.551Z,19.78
2022-12-22T18:11:28.237Z,19.76
2022-12-22T18:13:57.579Z,19.78
2022-12-22T18:16:27.266Z,19.77
2022-12-22T18:18:55.440Z,19.76
2022-12-22T18:21:25.636Z,19.76
2022-12-22T18:23:53.706Z,19.75
2022-12-22T18:26:24.146Z,19.75
2022-12-22T18:28:53.255Z,19.75
2022-12-22T18:31:25.199Z,19.75
2022-12-22T18:33:54.677Z,19.76
2022-12-22T18:36:28.752Z,19.75
2022-12-22T18:38:57.790Z,19.74
2022-12-22T18:41:27.386Z,19.74
2022-12-22T18:43:55.390Z,19.74
2022-12-22T18:46:26.440Z,19.74
2022-12-22T18:49:00.392Z,19.74
2022-12-22T18:51:31.624Z,19.74
2022-12-22T18:53:59.552Z,19.75
2022-12-22T18:56:27.536Z,19.74
2022-12-22T18:58:55.868Z,19.71
2022-12-22T19:01:26.100Z,19.74
2022-12-22T19:03:58.914Z,19.74
2022-12-22T19:06:27.138Z,19.74
2022-12-22T19:08:55.160Z,19.72
2022-12-22T19:11:26.844Z,19.73
2022-12-22T19:13:54.899Z,19.73
2022-12-22T19:16:27.684Z,19.73
2022-12-22T19:18:59.850Z,19.73
2022-12-22T19:21:30.643Z,19.74
2022-12-22T19:23:58.675Z,19.73
2022-12-22T19:26:28.084Z,19.73
2022-12-22T19:29:00.124Z,19.71
2022-12-22T19:31:31.121Z,19.71
2022-12-22T19:34:03.914Z,19.73
2022-12-22T19:36:33.351Z,19.73
2022-12-22T19:39:05.560Z,19.73
2022-12-22T19:41:41.896Z,19.71
2022-12-22T19:44:22.209Z,19.73
2022-12-22T19:46:51.073Z,19.72
2022-12-22T19:49:23.361Z,19.73
2022-12-22T19:51:53.666Z,19.74
2022-12-22T19:54:21.769Z,19.73
2022-12-22T19:56:53.541Z,19.73
2022-12-22T19:59:34.006Z,19.74
2022-12-22T20:02:23.061Z,19.74
2022-12-22T20:04:53.368Z,19.74
2022-12-22T20:07:24.095Z,19.74
2022-12-22T20:09:52.608Z,19.73
2022-12-22T20:12:26.210Z,19.73
2022-12-22T20:14:54.833Z,19.73
2022-12-22T20:17:23.216Z,19.72
2022-12-22T20:19:52.620Z,19.73
2022-12-22T20:22:22.253Z,19.71
2022-12-22T20:24:52.084Z,19.73
2022-12-22T20:27:25.665Z,19.71
2022-12-22T20:29:53.728Z,19.72
2022-12-22T20:32:27.672Z,19.71
2022-12-22T20:34:58.033Z,19.70
2022-12-22T20:37:27.886Z,19.71
2022-12-22T20:39:55.849Z,19.72
2022-12-22T20:42:27.094Z,19.71
2022-12-22T20:45:02.730Z,19.71
2022-12-22T20:47:31.666Z,19.72
2022-12-22T20:50:01.069Z,19.71
2022-12-22T20:52:29.915Z,19.70
2022-12-22T20:54:57.943Z,19.71
2022-12-22T20:57:28.748Z,19.70
2022-12-22T20:59:57.018Z,19.70
2022-12-22T21:02:28.701Z,19.70
2022-12-22T21:04:57.034Z,19.70
2022-12-22T21:07:27.667Z,19.70
2022-12-22T21:09:55.733Z,19.70
2022-12-22T21:12:23.748Z,19.71
2022-12-22T21:14:51.975Z,19.71
2022-12-22T21:17:20.908Z,19.70
2022-12-22T21:19:49.791Z,19.69
2022-12-22T21:22:17.826Z,19.69
2022-12-22T21:24:47.172Z,19.69
2022-12-22T21:27:21.017Z,19.70
2022-12-22T21:29:49.000Z,19.70
2022-12-22T21:32:17.039Z,19.69
2022-12-22T21:34:45.033Z,19.69
2022-12-22T21:37:16.925Z,19.68
2022-12-22T21:39:45.431Z,19.69
2022-12-22T21:42:17.452Z,19.68
2022-12-22T21:44:45.940Z,19.69
2022-12-22T21:47:16.082Z,19.69
2022-12-22T21:49:44.164Z,19.67
2022-12-22T21:52:12.117Z,19.69
2022-12-22T21:54:40.099Z,19.68
2022-12-22T21:57:14.899Z,19.68
2022-12-22T21:59:44.023Z,19.68
2022-12-22T22:02:16.844Z,19.68
2022-12-22T22:04:50.157Z,19.67
2022-12-22T22:07:22.047Z,19.67
2022-12-22T22:09:50.081Z,19.67
2022-12-22T22:12:37.260Z,19.67
2022-12-22T22:15:08.422Z,19.66
2022-12-22T22:17:36.480Z,19.66
2022-12-22T22:20:05.162Z,19.66
2022-12-22T22:22:33.120Z,19.66
2022-12-22T22:25:01.104Z,19.65
2022-12-22T22:27:29.132Z,19.66
2022-12-22T22:29:57.150Z,19.65
2022-12-22T22:32:26.515Z,19.64
2022-12-22T22:34:54.738Z,19.66
2022-12-22T22:37:26.087Z,19.64
2022-12-22T22:39:54.113Z,19.65
2022-12-22T22:42:22.062Z,19.64
2022-12-22T22:44:50.068Z,19.64
2022-12-22T22:47:18.133Z,19.65
2022-12-22T22:49:47.450Z,19.63
2022-12-22T22:52:15.729Z,19.63
2022-12-22T22:54:43.742Z,19.63
2022-12-22T22:57:14.264Z,19.62
2022-12-22T22:59:42.228Z,19.63
2022-12-22T23:02:11.327Z,19.63
2022-12-22T23:04:39.512Z,19.64
2022-12-22T23:07:08.936Z,19.63
2022-12-22T23:09:36.976Z,19.63
2022-12-22T23:12:05.684Z,19.62
2022-12-22T23:14:33.713Z,19.63
2022-12-22T23:17:01.734Z,19.62
2022-12-22T23:19:29.953Z,19.63
2022-12-22T23:21:58.148Z,19.62
2022-12-22T23:24:29.003Z,19.62
2022-12-22T23:26:57.003Z,19.61
2022-12-22T23:29:25.041Z,19.61
2022-12-22T23:31:53.136Z,19.61
2022-12-22T23:34:21.184Z,19.62
2022-12-22T23:36:49.220Z,19.61
2022-12-22T23:39:17.847Z,19.62
2022-12-22T23:41:47.171Z,19.61
2022-12-22T23:44:15.167Z,19.61
2022-12-22T23:46:43.267Z,19.61
2022-12-22T23:49:12.660Z,19.61
2022-12-22T23:51:41.695Z,19.59
2022-12-22T23:54:09.702Z,19.60
2022-12-22T23:56:37.718Z,19.60
2022-12-22T23:59:07.077Z,19.59
